createdAt,value
2023-08-28T00:00:11.245Z,13.33
2023-08-28T00:03:03.519Z,13.34
2023-08-28T00:05:36.222Z,13.33
2023-08-28T00:08:10.042Z,13.31
2023-08-28T00:10:43.028Z,13.28
2023-08-28T00:13:14.487Z,13.25
2023-08-28T00:15:45.937Z,13.21
2023-08-28T00:18:17.561Z,13.18
2023-08-28T00:20:48.987Z,13.18
2023-08-28T00:23:20.842Z,13.17
2023-08-28T00:25:52.430Z,13.15
2023-08-28T00:28:23.942Z,13.15
2023-08-28T00:30:55.904Z,13.15
2023-08-28T00:33:27.456Z,13.16
2023-08-28T00:35:59.181Z,13.16
2023-08-28T00:38:30.606Z,13.14
2023-08-28T00:41:02.140Z,13.13
2023-08-28T00:43:33.605Z,13.12
2023-08-28T00:46:06.755Z,13.11
2023-08-28T00:48:40.048Z,13.09
2023-08-28T00:51:11.858Z,13.07
2023-08-28T00:53:43.428Z,13.06
2023-08-28T00:56:14.953Z,13.07
2023-08-28T00:58:46.468Z,13.08
2023-08-28T01:01:17.971Z,13.07
2023-08-28T01:03:49.621Z,13.05
2023-08-28T01:06:29.899Z,13.01
2023-08-28T01:09:14.764Z,12.96
2023-08-28T01:11:52.352Z,12.93
2023-08-28T01:14:28.726Z,12.89
2023-08-28T01:17:04.892Z,12.86
2023-08-28T01:19:38.362Z,12.84
2023-08-28T01:22:18.779Z,12.82
2023-08-28T01:24:54.281Z,12.80
2023-08-28T01:27:26.031Z,12.77
2023-08-28T01:30:13.230Z,12.74
2023-08-28T01:32:46.522Z,12.70
2023-08-28T01:35:21.720Z,12.67
2023-08-28T01:38:10.968Z,12.64
2023-08-28T01:40:46.271Z,12.61
2023-08-28T01:43:22.523Z,12.60
2023-08-28T01:45:55.236Z,12.59
2023-08-28T01:48:29.498Z,12.56
2023-08-28T01:51:00.947Z,12.53
2023-08-28T01:53:32.806Z,12.51
2023-08-28T01:56:27.442Z,12.50
2023-08-28T01:59:00.706Z,12.51
2023-08-28T02:01:32.323Z,12.49
2023-08-28T02:04:04.781Z,12.48
2023-08-28T02:06:36.298Z,12.44
2023-08-28T02:09:08.217Z,12.40
2023-08-28T02:11:39.694Z,12.39
2023-08-28T02:14:11.359Z,12.37
2023-08-28T02:16:42.890Z,12.36
2023-08-28T02:19:14.304Z,12.35
2023-08-28T02:21:45.824Z,12.34
2023-08-28T02:24:17.354Z,12.33
2023-08-28T02:26:48.849Z,12.34
2023-08-28T02:29:20.797Z,12.32
2023-08-28T02:31:52.309Z,12.29
2023-08-28T02:34:23.815Z,12.26
2023-08-28T02:36:55.242Z,12.24
2023-08-28T02:39:26.687Z,12.21
2023-08-28T02:41:58.150Z,12.20
2023-08-28T02:44:29.588Z,12.20
2023-08-28T02:47:01.088Z,12.20
2023-08-28T02:49:32.519Z,12.17
2023-08-28T02:52:04.224Z,12.15
2023-08-28T02:54:35.787Z,12.14
2023-08-28T02:57:08.235Z,12.12
2023-08-28T02:59:39.814Z,12.10
2023-08-28T03:02:12.089Z,12.09
2023-08-28T03:04:43.739Z,12.09
2023-08-28T03:07:15.406Z,12.05
2023-08-28T03:09:46.886Z,12.00
2023-08-28T03:12:18.371Z,11.96
2023-08-28T03:14:50.100Z,11.90
2023-08-28T03:17:21.526Z,11.87
2023-08-28T03:19:52.934Z,11.87
2023-08-28T03:22:24.605Z,11.86
2023-08-28T03:24:56.061Z,11.83
2023-08-28T03:27:27.581Z,11.83
2023-08-28T03:30:02.118Z,11.82
2023-08-28T03:32:33.655Z,11.80
2023-08-28T03:35:05.647Z,11.78
2023-08-28T03:37:37.133Z,11.76
2023-08-28T03:40:10.430Z,11.74
2023-08-28T03:42:41.930Z,11.74
2023-08-28T03:45:13.608Z,11.77
2023-08-28T03:47:45.088Z,11.79
2023-08-28T03:50:17.076Z,11.80
2023-08-28T03:52:48.644Z,11.82
2023-08-28T03:55:20.208Z,11.83
2023-08-28T03:57:51.754Z,11.82
2023-08-28T04:00:23.467Z,11.83
2023-08-28T04:02:55.846Z,11.83
2023-08-28T04:05:28.081Z,11.84
2023-08-28T04:07:59.528Z,11.86
2023-08-28T04:10:30.995Z,11.85
2023-08-28T04:13:02.875Z,11.83
2023-08-28T04:15:34.783Z,11.82
2023-08-28T04:18:06.951Z,11.80
2023-08-28T04:20:38.421Z,11.75
2023-08-28T04:23:09.930Z,11.72
2023-08-28T04:25:41.422Z,11.68
2023-08-28T04:28:14.047Z,11.67
2023-08-28T04:30:45.643Z,11.65
2023-08-28T04:33:17.124Z,11.60
2023-08-28T04:35:48.763Z,11.60
2023-08-28T04:38:20.293Z,11.61
2023-08-28T04:40:51.910Z,11.61
2023-08-28T04:43:23.495Z,11.61
2023-08-28T04:45:55.283Z,11.63
2023-08-28T04:48:27.101Z,11.65
2023-08-28T04:50:58.765Z,11.64
2023-08-28T04:53:30.263Z,11.65
2023-08-28T04:56:01.814Z,11.66
2023-08-28T04:58:35.014Z,11.68
2023-08-28T05:01:06.512Z,11.69
2023-08-28T05:03:39.498Z,11.72
2023-08-28T05:06:11.023Z,11.73
2023-08-28T05:08:42.483Z,11.74
2023-08-28T05:11:14.848Z,11.74
2023-08-28T05:13:46.373Z,11.75
2023-08-28T05:16:17.812Z,11.75
2023-08-28T05:18:49.424Z,11.77
2023-08-28T05:21:20.977Z,11.79
2023-08-28T05:23:52.456Z,11.81
2023-08-28T05:26:23.924Z,11.82
2023-08-28T05:28:55.666Z,11.87
2023-08-28T05:31:27.191Z,11.89
2023-08-28T05:33:58.857Z,11.89
2023-08-28T05:36:30.338Z,11.93
2023-08-28T05:39:01.798Z,11.94
2023-08-28T05:41:33.229Z,11.97
2023-08-28T05:44:05.619Z,12.02
2023-08-28T05:46:37.092Z,12.09
2023-08-28T05:49:09.402Z,12.13
2023-08-28T05:51:40.818Z,12.16
2023-08-28T05:54:12.339Z,12.21
2023-08-28T05:56:43.773Z,12.27
2023-08-28T05:59:15.253Z,12.35
2023-08-28T06:01:47.126Z,12.43
2023-08-28T06:04:18.622Z,12.50
2023-08-28T06:06:50.262Z,12.56
2023-08-28T06:09:21.799Z,12.62
2023-08-28T06:11:53.581Z,12.67
2023-08-28T06:14:25.085Z,12.70
2023-08-28T06:16:56.568Z,12.73
2023-08-28T06:19:28.036Z,12.74
2023-08-28T06:22:00.088Z,12.76
2023-08-28T06:24:31.600Z,12.81
2023-08-28T06:27:03.680Z,12.84
2023-08-28T06:29:35.155Z,12.89
2023-08-28T06:32:07.418Z,12.94
2023-08-28T06:34:38.974Z,13.02
2023-08-28T06:37:10.602Z,13.09
2023-08-28T06:39:42.455Z,13.15
2023-08-28T06:42:14.343Z,13.24
2023-08-28T06:44:46.404Z,13.30
2023-08-28T06:47:17.933Z,13.39
2023-08-28T06:49:49.801Z,13.46
2023-08-28T06:52:22.151Z,13.53
2023-08-28T06:54:54.046Z,13.62
2023-08-28T06:57:25.676Z,13.69
2023-08-28T06:59:57.424Z,13.76
2023-08-28T07:02:31.831Z,13.84
2023-08-28T07:05:03.953Z,13.89
2023-08-28T07:07:35.418Z,13.93
2023-08-28T07:10:09.173Z,13.96
2023-08-28T07:12:40.693Z,14.00
2023-08-28T07:15:49.432Z,14.03
2023-08-28T07:18:21.077Z,14.08
2023-08-28T07:20:52.697Z,14.18
2023-08-28T07:23:26.109Z,14.29
2023-08-28T07:26:00.498Z,14.41
2023-08-28T07:28:32.244Z,14.54
2023-08-28T07:31:05.218Z,14.68
2023-08-28T07:33:36.921Z,14.81
2023-08-28T07:36:09.305Z,14.94
2023-08-28T07:38:43.328Z,15.05
2023-08-28T07:41:15.096Z,15.13
2023-08-28T07:43:46.701Z,15.20
2023-08-28T07:46:18.591Z,15.26
2023-08-28T07:48:50.115Z,15.30
2023-08-28T07:51:21.614Z,15.33
2023-08-28T07:53:53.091Z,15.38
2023-08-28T07:56:24.596Z,15.41
2023-08-28T07:58:56.038Z,15.44
2023-08-28T08:01:27.956Z,15.50
2023-08-28T08:03:59.665Z,15.54
2023-08-28T08:06:32.012Z,15.55
2023-08-28T08:09:03.544Z,15.57
2023-08-28T08:11:35.382Z,15.58
2023-08-28T08:14:07.097Z,15.59
2023-08-28T08:16:38.843Z,15.60
2023-08-28T08:19:10.303Z,15.62
2023-08-28T08:21:41.759Z,15.60
2023-08-28T08:24:13.481Z,15.59
2023-08-28T08:26:45.351Z,15.59
2023-08-28T08:29:16.863Z,15.62
2023-08-28T08:31:48.587Z,15.70
2023-08-28T08:34:20.309Z,15.80
2023-08-28T08:36:52.064Z,15.89
2023-08-28T08:39:25.302Z,16.00
2023-08-28T08:41:57.047Z,16.11
2023-08-28T08:44:28.870Z,16.21
2023-08-28T08:47:02.081Z,16.28
2023-08-28T08:49:34.916Z,16.33
2023-08-28T08:52:10.523Z,16.36
2023-08-28T08:54:44.431Z,16.37
2023-08-28T08:57:23.773Z,16.35
2023-08-28T08:59:56.586Z,16.33
2023-08-28T09:02:31.524Z,16.32
2023-08-28T09:05:04.729Z,16.35
2023-08-28T09:07:37.211Z,16.42
2023-08-28T09:10:10.387Z,16.48
2023-08-28T09:12:41.900Z,16.53
2023-08-28T09:15:16.791Z,16.61
2023-08-28T09:17:48.459Z,16.69
2023-08-28T09:20:22.723Z,16.72
2023-08-28T09:22:55.889Z,16.77
2023-08-28T09:25:28.073Z,16.85
2023-08-28T09:27:59.515Z,16.91
2023-08-28T09:30:33.224Z,16.99
2023-08-28T09:33:07.774Z,17.06
2023-08-28T09:35:43.060Z,17.15
2023-08-28T09:38:14.989Z,17.24
2023-08-28T09:40:46.757Z,17.32
2023-08-28T09:43:18.901Z,17.42
2023-08-28T09:45:51.319Z,17.51
2023-08-28T09:48:26.173Z,17.61
2023-08-28T09:50:57.868Z,17.71
2023-08-28T09:53:31.136Z,17.81
2023-08-28T09:56:03.342Z,17.90
2023-08-28T09:58:37.781Z,17.99
2023-08-28T10:01:09.498Z,18.08
2023-08-28T10:03:41.421Z,18.19
2023-08-28T10:06:13.493Z,18.28
2023-08-28T10:08:47.087Z,18.37
2023-08-28T10:11:19.029Z,18.43
2023-08-28T10:13:50.984Z,18.47
2023-08-28T10:16:26.845Z,18.50
2023-08-28T10:19:08.705Z,18.58
2023-08-28T10:21:41.256Z,18.68
2023-08-28T10:24:14.700Z,18.75
2023-08-28T10:26:47.115Z,18.77
2023-08-28T10:29:21.880Z,18.72
2023-08-28T10:31:55.085Z,18.62
2023-08-28T10:34:26.815Z,18.57
2023-08-28T10:37:06.311Z,18.53
2023-08-28T10:39:44.253Z,18.49
2023-08-28T10:42:20.187Z,18.46
2023-08-28T10:44:52.193Z,18.45
2023-08-28T10:47:23.927Z,18.44
2023-08-28T10:49:58.351Z,18.45
2023-08-28T10:52:30.173Z,18.45
2023-08-28T10:55:07.816Z,18.44
2023-08-28T10:57:41.414Z,18.46
2023-08-28T11:00:19.707Z,18.49
2023-08-28T11:03:10.461Z,18.49
2023-08-28T11:05:44.043Z,18.49
2023-08-28T11:08:16.923Z,18.50
2023-08-28T11:11:14.890Z,18.52
2023-08-28T11:14:03.986Z,18.52
2023-08-28T11:16:41.034Z,18.51
2023-08-28T11:19:12.833Z,18.51
2023-08-28T11:21:44.509Z,18.50
2023-08-28T11:24:27.884Z,18.50
2023-08-28T11:26:59.482Z,18.51
2023-08-28T11:29:32.298Z,18.51
2023-08-28T11:32:05.713Z,18.51
2023-08-28T11:34:38.039Z,18.51
2023-08-28T11:37:09.566Z,18.53
2023-08-28T11:39:41.048Z,18.53
2023-08-28T11:42:15.235Z,18.56
2023-08-28T11:44:49.846Z,18.60
2023-08-28T11:47:27.814Z,18.65
2023-08-28T11:50:00.241Z,18.73
2023-08-28T11:52:32.623Z,18.80
2023-08-28T11:55:05.864Z,18.87
2023-08-28T11:57:37.654Z,18.92
2023-08-28T12:00:17.434Z,18.96
2023-08-28T12:02:50.231Z,19.00
2023-08-28T12:05:22.035Z,19.07
2023-08-28T12:07:53.840Z,19.18
2023-08-28T12:10:26.230Z,19.28
2023-08-28T12:13:00.233Z,19.34
2023-08-28T12:15:35.797Z,19.38
2023-08-28T12:18:08.529Z,19.40
2023-08-28T12:20:40.018Z,19.44
2023-08-28T12:23:15.337Z,19.49
2023-08-28T12:25:46.849Z,19.52
2023-08-28T12:28:20.959Z,19.55
2023-08-28T12:30:55.129Z,19.53
2023-08-28T12:33:26.878Z,19.50
2023-08-28T12:35:58.567Z,19.47
2023-08-28T12:38:32.302Z,19.48
2023-08-28T12:41:05.314Z,19.52
2023-08-28T12:43:40.352Z,19.62
2023-08-28T12:46:12.145Z,19.72
2023-08-28T12:48:44.756Z,19.77
2023-08-28T12:51:16.657Z,19.85
2023-08-28T12:53:48.337Z,19.88
2023-08-28T12:56:19.934Z,19.91
2023-08-28T12:58:52.042Z,19.90
2023-08-28T13:01:23.935Z,19.87
2023-08-28T13:03:55.834Z,19.86
2023-08-28T13:06:28.253Z,19.84
2023-08-28T13:08:59.990Z,19.81
2023-08-28T13:11:31.516Z,19.80
2023-08-28T13:14:04.034Z,19.80
2023-08-28T13:16:35.994Z,19.82
2023-08-28T13:19:07.672Z,19.85
2023-08-28T13:21:39.256Z,19.85
2023-08-28T13:24:11.221Z,19.87
2023-08-28T13:26:43.361Z,19.92
2023-08-28T13:29:14.948Z,19.94
2023-08-28T13:31:49.574Z,19.94
2023-08-28T13:34:21.158Z,19.88
2023-08-28T13:36:52.672Z,19.83
2023-08-28T13:39:24.157Z,19.82
2023-08-28T13:41:55.975Z,19.83
2023-08-28T13:44:30.305Z,19.85
2023-08-28T13:47:04.033Z,19.88
2023-08-28T13:49:35.497Z,19.91
2023-08-28T13:52:09.878Z,19.92
2023-08-28T13:54:42.862Z,19.95
2023-08-28T13:57:14.483Z,19.98
2023-08-28T13:59:46.036Z,20.01
2023-08-28T14:02:17.891Z,20.04
2023-08-28T14:04:49.427Z,20.04
2023-08-28T14:07:20.988Z,20.04
2023-08-28T14:09:52.545Z,20.03
2023-08-28T14:12:24.900Z,20.02
2023-08-28T14:14:56.390Z,20.03
2023-08-28T14:17:27.960Z,20.02
2023-08-28T14:19:59.918Z,20.01
2023-08-28T14:22:31.617Z,19.99
2023-08-28T14:25:03.356Z,19.99
2023-08-28T14:27:46.423Z,20.01
2023-08-28T14:30:25.342Z,20.03
2023-08-28T14:32:56.926Z,20.04
2023-08-28T14:35:28.515Z,20.05
2023-08-28T14:38:00.080Z,20.07
2023-08-28T14:40:45.425Z,20.10
2023-08-28T14:43:18.391Z,20.14
2023-08-28T14:45:50.052Z,20.17
2023-08-28T14:48:21.717Z,20.22
2023-08-28T14:50:55.404Z,20.32
2023-08-28T14:53:26.998Z,20.43
2023-08-28T14:55:58.598Z,20.51
2023-08-28T14:58:30.104Z,20.59
2023-08-28T15:01:01.632Z,20.68
2023-08-28T15:03:33.126Z,20.81
2023-08-28T15:06:04.932Z,20.91
2023-08-28T15:08:36.741Z,20.99
2023-08-28T15:11:08.661Z,21.02
2023-08-28T15:13:40.080Z,21.05
2023-08-28T15:16:11.617Z,21.08
2023-08-28T15:18:43.501Z,21.12
2023-08-28T15:21:15.035Z,21.18
2023-08-28T15:23:46.478Z,21.23
2023-08-28T15:26:17.945Z,21.24
2023-08-28T15:28:49.574Z,21.24
2023-08-28T15:31:21.204Z,21.25
2023-08-28T15:33:52.680Z,21.24
2023-08-28T15:36:24.142Z,21.23
2023-08-28T15:38:55.776Z,21.22
2023-08-28T15:41:27.694Z,21.19
2023-08-28T15:43:59.145Z,21.15
2023-08-28T15:46:30.779Z,21.12
2023-08-28T15:49:02.259Z,21.10
2023-08-28T15:51:33.780Z,21.05
2023-08-28T15:54:06.057Z,20.99
2023-08-28T15:56:37.788Z,20.91
2023-08-28T15:59:14.790Z,20.84
2023-08-28T16:01:47.647Z,20.75
2023-08-28T16:04:19.255Z,20.67
2023-08-28T16:06:51.278Z,20.58
2023-08-28T16:09:23.602Z,20.52
2023-08-28T16:11:55.229Z,20.45
2023-08-28T16:14:26.773Z,20.40
2023-08-28T16:16:58.319Z,20.35
2023-08-28T16:19:29.755Z,20.29
2023-08-28T16:22:01.301Z,20.24
2023-08-28T16:24:32.747Z,20.18
2023-08-28T16:27:04.610Z,20.10
2023-08-28T16:29:36.467Z,20.02
2023-08-28T16:32:09.214Z,19.94
2023-08-28T16:34:40.626Z,19.84
2023-08-28T16:37:12.543Z,19.76
2023-08-28T16:39:44.259Z,19.68
2023-08-28T16:42:15.816Z,19.63
2023-08-28T16:44:47.628Z,19.58
2023-08-28T16:47:21.405Z,19.53
2023-08-28T16:49:53.278Z,19.48
2023-08-28T16:52:24.769Z,19.43
2023-08-28T16:54:56.926Z,19.38
2023-08-28T16:57:28.559Z,19.32
2023-08-28T17:00:00.469Z,19.26
2023-08-28T17:02:32.362Z,19.20
2023-08-28T17:05:03.984Z,19.13
2023-08-28T17:07:35.614Z,19.05
2023-08-28T17:10:09.321Z,18.98
2023-08-28T17:12:41.069Z,18.93
2023-08-28T17:15:12.736Z,18.88
2023-08-28T17:17:44.512Z,18.84
2023-08-28T17:20:16.060Z,18.81
2023-08-28T17:22:47.742Z,18.78
2023-08-28T17:25:19.992Z,18.74
2023-08-28T17:27:51.437Z,18.71
2023-08-28T17:30:22.942Z,18.68
2023-08-28T17:32:57.581Z,18.65
2023-08-28T17:35:31.097Z,18.63
2023-08-28T17:38:02.734Z,18.60
2023-08-28T17:40:34.129Z,18.57
2023-08-28T17:43:06.365Z,18.54
2023-08-28T17:45:40.222Z,18.51
2023-08-28T17:48:11.746Z,18.48
2023-08-28T17:50:46.727Z,18.44
2023-08-28T17:53:18.409Z,18.40
2023-08-28T17:55:50.374Z,18.38
2023-08-28T17:58:22.240Z,18.33
2023-08-28T18:00:54.560Z,18.29
2023-08-28T18:03:37.673Z,18.24
2023-08-28T18:06:10.856Z,18.21
2023-08-28T18:08:42.353Z,18.16
2023-08-28T18:11:13.993Z,18.12
2023-08-28T18:13:45.618Z,18.07
2023-08-28T18:16:20.768Z,18.03
2023-08-28T18:18:56.796Z,18.00
2023-08-28T18:21:29.442Z,17.98
2023-08-28T18:24:01.410Z,17.97
2023-08-28T18:26:33.198Z,17.98
2023-08-28T18:29:05.439Z,17.97
2023-08-28T18:31:37.408Z,17.93
2023-08-28T18:34:09.057Z,17.90
2023-08-28T18:36:41.084Z,17.87
2023-08-28T18:39:13.108Z,17.82
2023-08-28T18:41:50.230Z,17.76
2023-08-28T18:44:28.462Z,17.69
2023-08-28T18:47:01.068Z,17.64
2023-08-28T18:49:33.433Z,17.58
2023-08-28T18:52:07.531Z,17.54
2023-08-28T18:54:40.337Z,17.45
2023-08-28T18:57:12.510Z,17.38
2023-08-28T18:59:44.465Z,17.33
2023-08-28T19:02:19.906Z,17.31
2023-08-28T19:04:51.676Z,17.28
2023-08-28T19:07:25.065Z,17.25
2023-08-28T19:09:56.912Z,17.24
2023-08-28T19:12:29.394Z,17.22
2023-08-28T19:15:01.366Z,17.23
2023-08-28T19:17:33.116Z,17.22
2023-08-28T19:20:05.672Z,17.19
2023-08-28T19:22:37.666Z,17.14
2023-08-28T19:25:10.468Z,17.10
2023-08-28T19:27:42.581Z,17.03
2023-08-28T19:30:14.849Z,16.97
2023-08-28T19:32:47.965Z,16.92
2023-08-28T19:35:20.104Z,16.88
2023-08-28T19:37:51.642Z,16.84
2023-08-28T19:40:23.131Z,16.81
2023-08-28T19:42:55.685Z,16.79
2023-08-28T19:45:27.204Z,16.76
2023-08-28T19:47:58.686Z,16.76
2023-08-28T19:50:34.305Z,16.76
2023-08-28T19:53:07.841Z,16.74
2023-08-28T19:55:40.852Z,16.73
2023-08-28T19:58:12.393Z,16.72
2023-08-28T20:00:43.981Z,16.69
2023-08-28T20:03:15.595Z,16.68
2023-08-28T20:05:47.226Z,16.69
2023-08-28T20:08:19.462Z,16.69
2023-08-28T20:10:54.224Z,16.72
2023-08-28T20:13:25.818Z,16.73
2023-08-28T20:15:57.437Z,16.74
2023-08-28T20:18:29.084Z,16.75
2023-08-28T20:21:00.700Z,16.74
2023-08-28T20:23:32.308Z,16.72
2023-08-28T20:26:04.168Z,16.67
2023-08-28T20:28:37.202Z,16.61
2023-08-28T20:31:08.901Z,16.56
2023-08-28T20:33:40.417Z,16.51
2023-08-28T20:36:12.408Z,16.47
2023-08-28T20:38:43.841Z,16.45
2023-08-28T20:41:15.325Z,16.43
2023-08-28T20:43:47.470Z,16.37
2023-08-28T20:46:21.356Z,16.32
2023-08-28T20:48:52.900Z,16.28
2023-08-28T20:51:24.604Z,16.26
2023-08-28T20:53:57.308Z,16.24
2023-08-28T20:56:29.041Z,16.23
2023-08-28T20:59:00.478Z,16.22
2023-08-28T21:01:32.063Z,16.18
2023-08-28T21:04:03.748Z,16.13
2023-08-28T21:06:36.660Z,16.11
2023-08-28T21:09:08.583Z,16.09
2023-08-28T21:11:40.437Z,16.08
2023-08-28T21:14:11.971Z,16.06
2023-08-28T21:16:43.464Z,16.04
2023-08-28T21:19:21.112Z,16.03
2023-08-28T21:21:52.592Z,16.02
2023-08-28T21:24:24.086Z,16.00
2023-08-28T21:26:55.664Z,16.00
2023-08-28T21:29:27.238Z,15.98
2023-08-28T21:31:59.896Z,15.94
2023-08-28T21:34:31.415Z,15.90
2023-08-28T21:37:03.949Z,15.89
2023-08-28T21:39:35.428Z,15.87
2023-08-28T21:42:07.513Z,15.86
2023-08-28T21:44:39.005Z,15.84
2023-08-28T21:47:10.518Z,15.83
2023-08-28T21:49:42.246Z,15.83
2023-08-28T21:52:13.729Z,15.82
2023-08-28T21:54:45.598Z,15.82
2023-08-28T21:57:17.431Z,15.81
2023-08-28T21:59:49.044Z,15.78
2023-08-28T22:02:20.672Z,15.73
2023-08-28T22:04:54.565Z,15.68
2023-08-28T22:07:26.259Z,15.63
2023-08-28T22:09:58.115Z,15.60
2023-08-28T22:12:29.605Z,15.58
2023-08-28T22:15:01.481Z,15.56
2023-08-28T22:17:33.192Z,15.56
2023-08-28T22:20:05.254Z,15.57
2023-08-28T22:22:36.778Z,15.59
2023-08-28T22:25:09.186Z,15.59
2023-08-28T22:27:40.674Z,15.54
2023-08-28T22:30:13.463Z,15.48
2023-08-28T22:32:45.104Z,15.40
2023-08-28T22:35:16.669Z,15.34
2023-08-28T22:37:48.174Z,15.28
2023-08-28T22:40:21.993Z,15.19
2023-08-28T22:42:53.776Z,15.15
2023-08-28T22:45:25.561Z,15.14
2023-08-28T22:47:57.417Z,15.14
2023-08-28T22:50:28.997Z,15.14
2023-08-28T22:53:00.763Z,15.12
2023-08-28T22:55:32.526Z,15.11
2023-08-28T22:58:05.157Z,15.09
2023-08-28T23:00:37.004Z,15.07
2023-08-28T23:03:08.775Z,15.04
2023-08-28T23:05:48.125Z,14.99
2023-08-28T23:08:19.686Z,14.95
2023-08-28T23:10:51.181Z,14.92
2023-08-28T23:13:22.770Z,14.89
2023-08-28T23:15:55.282Z,14.87
2023-08-28T23:18:27.295Z,14.86
2023-08-28T23:21:00.254Z,14.82
2023-08-28T23:23:31.734Z,14.83
2023-08-28T23:26:04.003Z,14.84
2023-08-28T23:28:35.481Z,14.82
2023-08-28T23:31:08.891Z,14.80
2023-08-28T23:33:40.714Z,14.77
2023-08-28T23:36:12.961Z,14.73
2023-08-28T23:38:45.354Z,14.70
2023-08-28T23:41:16.875Z,14.66
2023-08-28T23:43:48.455Z,14.64
2023-08-28T23:46:19.991Z,14.61
2023-08-28T23:48:51.593Z,14.60
2023-08-28T23:51:23.144Z,14.60
2023-08-28T23:53:54.675Z,14.61
2023-08-28T23:56:26.955Z,14.59
2023-08-28T23:58:58.563Z,14.56
